sensor_id;sensor_type;location;lat;lon;timestamp;P1;durP1;ratioP1;P2;durP2;ratioP2
5412;SDS011;2729;50.056;8.678;2023-05-07T00:02:21;2.10;;;1.70;;
5412;SDS011;2729;50.056;8.678;2023-05-07T00:04:47;2.30;;;2.00;;
5412;SDS011;2729;50.056;8.678;2023-05-07T00:07:12;1.60;;;1.50;;
5412;SDS011;2729;50.056;8.678;2023-05-07T00:09:38;2.03;;;1.93;;
5412;SDS011;2729;50.056;8.678;2023-05-07T00:12:05;2.67;;;1.90;;
5412;SDS011;2729;50.056;8.678;2023-05-07T00:14:31;3.70;;;1.53;;
5412;SDS011;2729;50.056;8.678;2023-05-07T00:16:57;2.10;;;1.77;;
5412;SDS011;2729;50.056;8.678;2023-05-07T00:19:27;4.13;;;2.03;;
5412;SDS011;2729;50.056;8.678;2023-05-07T00:21:53;1.60;;;1.50;;
5412;SDS011;2729;50.056;8.678;2023-05-07T00:24:25;1.83;;;1.73;;
5412;SDS011;2729;50.056;8.678;2023-05-07T00:26:51;2.17;;;1.80;;
5412;SDS011;2729;50.056;8.678;2023-05-07T00:29:20;3.03;;;2.10;;
5412;SDS011;2729;50.056;8.678;2023-05-07T00:31:46;1.77;;;1.67;;
5412;SDS011;2729;50.056;8.678;2023-05-07T00:34:14;1.47;;;1.47;;
5412;SDS011;2729;50.056;8.678;2023-05-07T00:36:40;1.50;;;1.40;;
5412;SDS011;2729;50.056;8.678;2023-05-07T00:39:06;2.40;;;1.63;;
5412;SDS011;2729;50.056;8.678;2023-05-07T00:41:32;2.20;;;1.87;;
5412;SDS011;2729;50.056;8.678;2023-05-07T00:43:58;2.47;;;2.00;;
5412;SDS011;2729;50.056;8.678;2023-05-07T00:46:24;1.70;;;1.60;;
5412;SDS011;2729;50.056;8.678;2023-05-07T00:48:50;2.00;;;1.63;;
5412;SDS011;2729;50.056;8.678;2023-05-07T00:51:17;1.70;;;1.60;;
5412;SDS011;2729;50.056;8.678;2023-05-07T00:53:43;1.37;;;1.30;;
5412;SDS011;2729;50.056;8.678;2023-05-07T00:56:10;2.87;;;1.87;;
5412;SDS011;2729;50.056;8.678;2023-05-07T00:58:36;1.63;;;1.53;;
5412;SDS011;2729;50.056;8.678;2023-05-07T01:01:03;2.03;;;1.60;;
5412;SDS011;2729;50.056;8.678;2023-05-07T01:03:29;1.70;;;1.60;;
5412;SDS011;2729;50.056;8.678;2023-05-07T01:05:55;1.40;;;1.37;;
5412;SDS011;2729;50.056;8.678;2023-05-07T01:08:23;2.30;;;1.80;;
5412;SDS011;2729;50.056;8.678;2023-05-07T01:10:52;3.83;;;1.90;;
5412;SDS011;2729;50.056;8.678;2023-05-07T01:13:18;1.80;;;1.57;;
5412;SDS011;2729;50.056;8.678;2023-05-07T01:15:44;1.67;;;1.57;;
5412;SDS011;2729;50.056;8.678;2023-05-07T01:18:10;1.87;;;1.67;;
5412;SDS011;2729;50.056;8.678;2023-05-07T01:20:36;1.90;;;1.73;;
5412;SDS011;2729;50.056;8.678;2023-05-07T01:23:03;1.63;;;1.53;;
5412;SDS011;2729;50.056;8.678;2023-05-07T01:25:29;1.80;;;1.70;;
5412;SDS011;2729;50.056;8.678;2023-05-07T01:27:58;2.97;;;1.80;;
5412;SDS011;2729;50.056;8.678;2023-05-07T01:30:47;2.50;;;1.70;;
5412;SDS011;2729;50.056;8.678;2023-05-07T01:33:18;1.90;;;1.70;;
5412;SDS011;2729;50.056;8.678;2023-05-07T01:35:48;3.73;;;2.10;;
5412;SDS011;2729;50.056;8.678;2023-05-07T01:38:17;1.63;;;1.60;;
5412;SDS011;2729;50.056;8.678;2023-05-07T01:40:44;1.53;;;1.40;;
5412;SDS011;2729;50.056;8.678;2023-05-07T01:43:11;1.80;;;1.70;;
5412;SDS011;2729;50.056;8.678;2023-05-07T01:45:37;2.13;;;1.43;;
5412;SDS011;2729;50.056;8.678;2023-05-07T01:48:05;3.67;;;2.43;;
5412;SDS011;2729;50.056;8.678;2023-05-07T01:50:32;2.00;;;1.90;;
5412;SDS011;2729;50.056;8.678;2023-05-07T01:52:59;1.70;;;1.60;;
5412;SDS011;2729;50.056;8.678;2023-05-07T01:55:25;1.83;;;1.80;;
5412;SDS011;2729;50.056;8.678;2023-05-07T01:57:51;2.53;;;1.80;;
5412;SDS011;2729;50.056;8.678;2023-05-07T02:00:17;2.40;;;1.73;;
5412;SDS011;2729;50.056;8.678;2023-05-07T02:02:44;1.60;;;1.50;;
5412;SDS011;2729;50.056;8.678;2023-05-07T02:05:21;2.20;;;2.00;;
5412;SDS011;2729;50.056;8.678;2023-05-07T02:07:54;8.63;;;1.77;;
5412;SDS011;2729;50.056;8.678;2023-05-07T02:10:20;2.53;;;1.53;;
5412;SDS011;2729;50.056;8.678;2023-05-07T02:12:46;2.00;;;1.90;;
5412;SDS011;2729;50.056;8.678;2023-05-07T02:15:12;5.70;;;1.50;;
5412;SDS011;2729;50.056;8.678;2023-05-07T02:17:39;1.80;;;1.70;;
5412;SDS011;2729;50.056;8.678;2023-05-07T02:20:24;1.70;;;1.60;;
5412;SDS011;2729;50.056;8.678;2023-05-07T02:22:54;1.53;;;1.43;;
5412;SDS011;2729;50.056;8.678;2023-05-07T02:25:20;1.53;;;1.43;;
5412;SDS011;2729;50.056;8.678;2023-05-07T02:27:46;1.90;;;1.80;;
5412;SDS011;2729;50.056;8.678;2023-05-07T02:30:14;1.70;;;1.60;;
5412;SDS011;2729;50.056;8.678;2023-05-07T02:32:40;2.20;;;2.10;;
5412;SDS011;2729;50.056;8.678;2023-05-07T02:35:06;2.60;;;1.67;;
5412;SDS011;2729;50.056;8.678;2023-05-07T02:37:33;1.80;;;1.70;;
5412;SDS011;2729;50.056;8.678;2023-05-07T02:40:00;2.00;;;1.60;;
5412;SDS011;2729;50.056;8.678;2023-05-07T02:42:26;3.20;;;2.17;;
5412;SDS011;2729;50.056;8.678;2023-05-07T02:44:53;1.80;;;1.70;;
5412;SDS011;2729;50.056;8.678;2023-05-07T02:47:19;2.73;;;1.77;;
5412;SDS011;2729;50.056;8.678;2023-05-07T02:49:45;11.63;;;2.00;;
5412;SDS011;2729;50.056;8.678;2023-05-07T02:52:11;1.93;;;1.83;;
5412;SDS011;2729;50.056;8.678;2023-05-07T02:54:37;1.97;;;1.60;;
5412;SDS011;2729;50.056;8.678;2023-05-07T02:57:03;2.00;;;1.80;;
5412;SDS011;2729;50.056;8.678;2023-05-07T02:59:29;1.70;;;1.60;;
5412;SDS011;2729;50.056;8.678;2023-05-07T03:01:56;1.50;;;1.43;;
5412;SDS011;2729;50.056;8.678;2023-05-07T03:04:22;2.20;;;2.10;;
5412;SDS011;2729;50.056;8.678;2023-05-07T03:06:48;2.37;;;2.17;;
5412;SDS011;2729;50.056;8.678;2023-05-07T03:09:14;1.97;;;1.77;;
5412;SDS011;2729;50.056;8.678;2023-05-07T03:11:40;3.60;;;1.70;;
5412;SDS011;2729;50.056;8.678;2023-05-07T03:14:06;5.53;;;2.07;;
5412;SDS011;2729;50.056;8.678;2023-05-07T03:16:32;1.60;;;1.50;;
5412;SDS011;2729;50.056;8.678;2023-05-07T03:18:58;1.70;;;1.60;;
5412;SDS011;2729;50.056;8.678;2023-05-07T03:21:24;1.87;;;1.77;;
5412;SDS011;2729;50.056;8.678;2023-05-07T03:23:52;1.90;;;1.80;;
5412;SDS011;2729;50.056;8.678;2023-05-07T03:26:18;6.53;;;1.87;;
5412;SDS011;2729;50.056;8.678;2023-05-07T03:28:44;3.40;;;1.80;;
5412;SDS011;2729;50.056;8.678;2023-05-07T03:31:13;2.83;;;1.87;;
5412;SDS011;2729;50.056;8.678;2023-05-07T03:33:49;2.20;;;2.10;;
5412;SDS011;2729;50.056;8.678;2023-05-07T03:36:17;4.20;;;1.50;;
5412;SDS011;2729;50.056;8.678;2023-05-07T03:38:43;1.53;;;1.43;;
5412;SDS011;2729;50.056;8.678;2023-05-07T03:41:09;1.80;;;1.70;;
5412;SDS011;2729;50.056;8.678;2023-05-07T03:43:35;3.10;;;1.90;;
5412;SDS011;2729;50.056;8.678;2023-05-07T03:46:06;1.97;;;1.77;;
5412;SDS011;2729;50.056;8.678;2023-05-07T03:48:32;2.10;;;2.00;;
5412;SDS011;2729;50.056;8.678;2023-05-07T03:50:59;2.90;;;2.50;;
5412;SDS011;2729;50.056;8.678;2023-05-07T03:53:28;1.90;;;1.60;;
5412;SDS011;2729;50.056;8.678;2023-05-07T03:55:54;1.87;;;1.80;;
5412;SDS011;2729;50.056;8.678;2023-05-07T03:58:20;2.27;;;2.03;;
5412;SDS011;2729;50.056;8.678;2023-05-07T04:00:47;1.80;;;1.67;;
5412;SDS011;2729;50.056;8.678;2023-05-07T04:03:21;2.10;;;1.77;;
5412;SDS011;2729;50.056;8.678;2023-05-07T04:05:47;2.23;;;2.13;;
5412;SDS011;2729;50.056;8.678;2023-05-07T04:08:14;2.77;;;1.90;;
5412;SDS011;2729;50.056;8.678;2023-05-07T04:10:44;1.90;;;1.80;;
5412;SDS011;2729;50.056;8.678;2023-05-07T04:13:11;5.87;;;2.20;;
5412;SDS011;2729;50.056;8.678;2023-05-07T04:15:39;2.20;;;2.00;;
5412;SDS011;2729;50.056;8.678;2023-05-07T04:18:09;2.07;;;1.80;;
5412;SDS011;2729;50.056;8.678;2023-05-07T04:20:35;2.53;;;1.70;;
5412;SDS011;2729;50.056;8.678;2023-05-07T04:23:03;2.30;;;1.77;;
5412;SDS011;2729;50.056;8.678;2023-05-07T04:25:31;2.10;;;2.00;;
5412;SDS011;2729;50.056;8.678;2023-05-07T04:28:06;1.90;;;1.80;;
5412;SDS011;2729;50.056;8.678;2023-05-07T04:30:32;1.90;;;1.80;;
5412;SDS011;2729;50.056;8.678;2023-05-07T04:32:58;4.80;;;1.73;;
5412;SDS011;2729;50.056;8.678;2023-05-07T04:35:26;1.70;;;1.60;;
5412;SDS011;2729;50.056;8.678;2023-05-07T04:37:52;1.73;;;1.63;;
5412;SDS011;2729;50.056;8.678;2023-05-07T04:40:18;1.80;;;1.70;;
5412;SDS011;2729;50.056;8.678;2023-05-07T04:42:45;2.10;;;2.00;;
5412;SDS011;2729;50.056;8.678;2023-05-07T04:45:11;2.43;;;1.93;;
5412;SDS011;2729;50.056;8.678;2023-05-07T04:47:40;1.80;;;1.70;;
5412;SDS011;2729;50.056;8.678;2023-05-07T04:50:06;1.80;;;1.70;;
5412;SDS011;2729;50.056;8.678;2023-05-07T04:52:33;4.50;;;1.93;;
5412;SDS011;2729;50.056;8.678;2023-05-07T04:55:00;3.37;;;2.13;;
5412;SDS011;2729;50.056;8.678;2023-05-07T04:57:29;1.90;;;1.80;;
5412;SDS011;2729;50.056;8.678;2023-05-07T04:59:55;3.83;;;2.00;;
5412;SDS011;2729;50.056;8.678;2023-05-07T05:02:21;1.73;;;1.73;;
5412;SDS011;2729;50.056;8.678;2023-05-07T05:04:47;2.60;;;2.40;;
5412;SDS011;2729;50.056;8.678;2023-05-07T05:07:14;3.23;;;2.00;;
5412;SDS011;2729;50.056;8.678;2023-05-07T05:09:40;1.83;;;1.73;;
5412;SDS011;2729;50.056;8.678;2023-05-07T05:12:07;2.20;;;2.10;;
5412;SDS011;2729;50.056;8.678;2023-05-07T05:14:34;1.87;;;1.77;;
5412;SDS011;2729;50.056;8.678;2023-05-07T05:17:00;1.83;;;1.73;;
5412;SDS011;2729;50.056;8.678;2023-05-07T05:19:26;2.20;;;1.50;;
5412;SDS011;2729;50.056;8.678;2023-05-07T05:21:52;2.20;;;2.10;;
5412;SDS011;2729;50.056;8.678;2023-05-07T05:24:18;1.93;;;1.83;;
5412;SDS011;2729;50.056;8.678;2023-05-07T05:26:44;2.10;;;2.00;;
5412;SDS011;2729;50.056;8.678;2023-05-07T05:29:10;2.63;;;2.43;;
5412;SDS011;2729;50.056;8.678;2023-05-07T05:31:39;1.80;;;1.70;;
5412;SDS011;2729;50.056;8.678;2023-05-07T05:34:07;2.23;;;2.03;;
5412;SDS011;2729;50.056;8.678;2023-05-07T05:36:33;2.40;;;1.97;;
5412;SDS011;2729;50.056;8.678;2023-05-07T05:38:58;2.87;;;2.10;;
5412;SDS011;2729;50.056;8.678;2023-05-07T05:41:24;2.00;;;1.90;;
5412;SDS011;2729;50.056;8.678;2023-05-07T05:43:51;2.13;;;1.90;;
5412;SDS011;2729;50.056;8.678;2023-05-07T05:46:17;2.67;;;2.03;;
5412;SDS011;2729;50.056;8.678;2023-05-07T05:48:43;2.40;;;1.90;;
5412;SDS011;2729;50.056;8.678;2023-05-07T05:51:10;5.50;;;2.27;;
5412;SDS011;2729;50.056;8.678;2023-05-07T05:53:36;3.90;;;2.47;;
5412;SDS011;2729;50.056;8.678;2023-05-07T05:56:02;3.50;;;2.00;;
5412;SDS011;2729;50.056;8.678;2023-05-07T05:58:30;2.37;;;2.17;;
5412;SDS011;2729;50.056;8.678;2023-05-07T06:01:00;2.30;;;2.20;;
5412;SDS011;2729;50.056;8.678;2023-05-07T06:03:28;2.03;;;1.93;;
5412;SDS011;2729;50.056;8.678;2023-05-07T06:05:56;2.40;;;2.20;;
5412;SDS011;2729;50.056;8.678;2023-05-07T06:08:22;2.13;;;2.00;;
5412;SDS011;2729;50.056;8.678;2023-05-07T06:10:48;2.73;;;2.40;;
5412;SDS011;2729;50.056;8.678;2023-05-07T06:13:15;2.30;;;2.20;;
5412;SDS011;2729;50.056;8.678;2023-05-07T06:15:41;3.70;;;2.27;;
5412;SDS011;2729;50.056;8.678;2023-05-07T06:18:10;2.03;;;1.90;;
5412;SDS011;2729;50.056;8.678;2023-05-07T06:20:36;2.73;;;2.53;;
5412;SDS011;2729;50.056;8.678;2023-05-07T06:23:04;2.33;;;2.20;;
5412;SDS011;2729;50.056;8.678;2023-05-07T06:25:32;1.83;;;1.80;;
5412;SDS011;2729;50.056;8.678;2023-05-07T06:27:58;2.33;;;2.20;;
5412;SDS011;2729;50.056;8.678;2023-05-07T06:30:25;2.47;;;2.27;;
5412;SDS011;2729;50.056;8.678;2023-05-07T06:32:53;2.40;;;2.20;;
5412;SDS011;2729;50.056;8.678;2023-05-07T06:35:20;2.67;;;2.40;;
5412;SDS011;2729;50.056;8.678;2023-05-07T06:37:46;2.97;;;2.40;;
5412;SDS011;2729;50.056;8.678;2023-05-07T06:40:17;2.50;;;2.30;;
5412;SDS011;2729;50.056;8.678;2023-05-07T06:42:44;2.37;;;2.27;;
5412;SDS011;2729;50.056;8.678;2023-05-07T06:45:29;2.40;;;2.20;;
5412;SDS011;2729;50.056;8.678;2023-05-07T06:47:56;2.50;;;2.30;;
5412;SDS011;2729;50.056;8.678;2023-05-07T06:50:23;3.20;;;2.30;;
5412;SDS011;2729;50.056;8.678;2023-05-07T06:52:50;2.67;;;2.47;;
5412;SDS011;2729;50.056;8.678;2023-05-07T06:55:16;2.80;;;2.60;;
5412;SDS011;2729;50.056;8.678;2023-05-07T06:57:42;2.30;;;2.20;;
5412;SDS011;2729;50.056;8.678;2023-05-07T07:00:08;2.60;;;2.40;;
5412;SDS011;2729;50.056;8.678;2023-05-07T07:02:42;2.93;;;2.73;;
5412;SDS011;2729;50.056;8.678;2023-05-07T07:05:11;2.47;;;2.37;;
5412;SDS011;2729;50.056;8.678;2023-05-07T07:07:37;3.03;;;2.53;;
5412;SDS011;2729;50.056;8.678;2023-05-07T07:10:04;2.60;;;2.40;;
5412;SDS011;2729;50.056;8.678;2023-05-07T07:12:31;2.03;;;1.93;;
5412;SDS011;2729;50.056;8.678;2023-05-07T07:14:56;2.73;;;2.53;;
5412;SDS011;2729;50.056;8.678;2023-05-07T07:17:23;4.47;;;2.70;;
5412;SDS011;2729;50.056;8.678;2023-05-07T07:19:49;2.20;;;2.10;;
5412;SDS011;2729;50.056;8.678;2023-05-07T07:22:15;2.93;;;2.67;;
5412;SDS011;2729;50.056;8.678;2023-05-07T07:24:41;2.77;;;2.57;;
5412;SDS011;2729;50.056;8.678;2023-05-07T07:27:09;3.60;;;2.30;;
5412;SDS011;2729;50.056;8.678;2023-05-07T07:29:35;2.83;;;2.63;;
5412;SDS011;2729;50.056;8.678;2023-05-07T07:32:02;2.67;;;2.47;;
5412;SDS011;2729;50.056;8.678;2023-05-07T07:34:30;10.03;;;2.50;;
5412;SDS011;2729;50.056;8.678;2023-05-07T07:36:56;2.50;;;2.30;;
5412;SDS011;2729;50.056;8.678;2023-05-07T07:39:23;4.90;;;2.47;;
5412;SDS011;2729;50.056;8.678;2023-05-07T07:41:52;3.30;;;2.60;;
5412;SDS011;2729;50.056;8.678;2023-05-07T07:44:19;2.80;;;2.30;;
5412;SDS011;2729;50.056;8.678;2023-05-07T07:46:50;2.40;;;2.30;;
5412;SDS011;2729;50.056;8.678;2023-05-07T07:49:16;2.50;;;2.30;;
5412;SDS011;2729;50.056;8.678;2023-05-07T07:51:43;2.90;;;2.70;;
5412;SDS011;2729;50.056;8.678;2023-05-07T07:54:11;3.00;;;2.70;;
5412;SDS011;2729;50.056;8.678;2023-05-07T07:56:38;2.47;;;2.27;;
5412;SDS011;2729;50.056;8.678;2023-05-07T07:59:05;2.80;;;2.60;;
5412;SDS011;2729;50.056;8.678;2023-05-07T08:01:32;3.47;;;2.70;;
5412;SDS011;2729;50.056;8.678;2023-05-07T08:03:59;3.03;;;2.50;;
5412;SDS011;2729;50.056;8.678;2023-05-07T08:06:26;3.50;;;2.73;;
5412;SDS011;2729;50.056;8.678;2023-05-07T08:08:53;2.53;;;2.40;;
5412;SDS011;2729;50.056;8.678;2023-05-07T08:11:19;2.63;;;2.43;;
5412;SDS011;2729;50.056;8.678;2023-05-07T08:13:45;3.10;;;2.90;;
5412;SDS011;2729;50.056;8.678;2023-05-07T08:16:12;2.70;;;2.50;;
5412;SDS011;2729;50.056;8.678;2023-05-07T08:18:39;3.90;;;2.93;;
5412;SDS011;2729;50.056;8.678;2023-05-07T08:21:05;2.73;;;2.53;;
5412;SDS011;2729;50.056;8.678;2023-05-07T08:23:31;2.73;;;2.53;;
5412;SDS011;2729;50.056;8.678;2023-05-07T08:25:58;4.50;;;2.87;;
5412;SDS011;2729;50.056;8.678;2023-05-07T08:28:24;5.83;;;3.00;;
5412;SDS011;2729;50.056;8.678;2023-05-07T08:30:51;2.87;;;2.67;;
5412;SDS011;2729;50.056;8.678;2023-05-07T08:33:17;2.83;;;2.63;;
5412;SDS011;2729;50.056;8.678;2023-05-07T08:35:43;2.50;;;2.30;;
5412;SDS011;2729;50.056;8.678;2023-05-07T08:38:11;3.63;;;3.10;;
5412;SDS011;2729;50.056;8.678;2023-05-07T08:40:38;7.70;;;4.70;;
5412;SDS011;2729;50.056;8.678;2023-05-07T08:43:13;3.13;;;2.87;;
5412;SDS011;2729;50.056;8.678;2023-05-07T08:45:41;3.97;;;2.90;;
5412;SDS011;2729;50.056;8.678;2023-05-07T08:48:14;6.23;;;2.80;;
5412;SDS011;2729;50.056;8.678;2023-05-07T08:50:42;2.90;;;2.70;;
5412;SDS011;2729;50.056;8.678;2023-05-07T08:53:09;2.50;;;2.40;;
5412;SDS011;2729;50.056;8.678;2023-05-07T08:55:35;2.97;;;2.67;;
5412;SDS011;2729;50.056;8.678;2023-05-07T08:58:01;2.90;;;2.63;;
5412;SDS011;2729;50.056;8.678;2023-05-07T09:00:29;3.00;;;2.80;;
5412;SDS011;2729;50.056;8.678;2023-05-07T09:02:56;3.57;;;2.70;;
5412;SDS011;2729;50.056;8.678;2023-05-07T09:05:22;3.70;;;3.27;;
5412;SDS011;2729;50.056;8.678;2023-05-07T09:07:49;3.00;;;2.70;;
5412;SDS011;2729;50.056;8.678;2023-05-07T09:10:16;2.57;;;2.40;;
5412;SDS011;2729;50.056;8.678;2023-05-07T09:12:44;3.43;;;3.13;;
5412;SDS011;2729;50.056;8.678;2023-05-07T09:15:12;4.93;;;2.80;;
5412;SDS011;2729;50.056;8.678;2023-05-07T09:17:39;2.80;;;2.60;;
5412;SDS011;2729;50.056;8.678;2023-05-07T09:20:06;2.60;;;2.40;;
5412;SDS011;2729;50.056;8.678;2023-05-07T09:22:33;2.70;;;2.50;;
5412;SDS011;2729;50.056;8.678;2023-05-07T09:25:08;3.47;;;2.97;;
5412;SDS011;2729;50.056;8.678;2023-05-07T09:27:36;9.03;;;2.60;;
5412;SDS011;2729;50.056;8.678;2023-05-07T09:30:03;2.50;;;2.40;;
5412;SDS011;2729;50.056;8.678;2023-05-07T09:32:34;2.70;;;2.50;;
5412;SDS011;2729;50.056;8.678;2023-05-07T09:35:01;3.10;;;2.80;;
5412;SDS011;2729;50.056;8.678;2023-05-07T09:37:28;2.80;;;2.60;;
5412;SDS011;2729;50.056;8.678;2023-05-07T09:39:56;5.50;;;2.93;;
5412;SDS011;2729;50.056;8.678;2023-05-07T09:42:24;2.80;;;2.60;;
5412;SDS011;2729;50.056;8.678;2023-05-07T09:44:52;2.80;;;2.60;;
5412;SDS011;2729;50.056;8.678;2023-05-07T09:47:23;3.20;;;2.90;;
5412;SDS011;2729;50.056;8.678;2023-05-07T09:49:54;2.67;;;2.57;;
5412;SDS011;2729;50.056;8.678;2023-05-07T09:52:23;2.40;;;2.30;;
5412;SDS011;2729;50.056;8.678;2023-05-07T09:54:52;3.70;;;2.83;;
5412;SDS011;2729;50.056;8.678;2023-05-07T09:57:23;3.30;;;3.00;;
5412;SDS011;2729;50.056;8.678;2023-05-07T09:59:54;2.67;;;1.87;;
5412;SDS011;2729;50.056;8.678;2023-05-07T10:02:23;5.90;;;2.70;;
5412;SDS011;2729;50.056;8.678;2023-05-07T10:04:52;2.50;;;2.30;;
5412;SDS011;2729;50.056;8.678;2023-05-07T10:07:29;2.67;;;2.20;;
5412;SDS011;2729;50.056;8.678;2023-05-07T10:09:59;2.30;;;2.20;;
5412;SDS011;2729;50.056;8.678;2023-05-07T10:12:34;2.43;;;2.33;;
5412;SDS011;2729;50.056;8.678;2023-05-07T10:15:06;1.90;;;1.80;;
5412;SDS011;2729;50.056;8.678;2023-05-07T10:17:37;2.70;;;2.50;;
5412;SDS011;2729;50.056;8.678;2023-05-07T10:20:05;4.40;;;3.20;;
5412;SDS011;2729;50.056;8.678;2023-05-07T10:22:33;3.30;;;3.00;;
5412;SDS011;2729;50.056;8.678;2023-05-07T10:25:18;3.40;;;3.10;;
5412;SDS011;2729;50.056;8.678;2023-05-07T10:27:46;3.10;;;2.90;;
5412;SDS011;2729;50.056;8.678;2023-05-07T10:33:01;2.17;;;1.97;;
5412;SDS011;2729;50.056;8.678;2023-05-07T10:35:36;2.33;;;2.23;;
5412;SDS011;2729;50.056;8.678;2023-05-07T10:38:04;2.30;;;1.93;;
5412;SDS011;2729;50.056;8.678;2023-05-07T10:40:32;3.70;;;2.47;;
5412;SDS011;2729;50.056;8.678;2023-05-07T10:43:03;2.30;;;2.20;;
5412;SDS011;2729;50.056;8.678;2023-05-07T10:46:08;4.43;;;2.20;;
5412;SDS011;2729;50.056;8.678;2023-05-07T10:51:35;2.37;;;2.17;;
5412;SDS011;2729;50.056;8.678;2023-05-07T10:56:52;2.77;;;2.57;;
5412;SDS011;2729;50.056;8.678;2023-05-07T10:59:30;2.87;;;2.67;;
5412;SDS011;2729;50.056;8.678;2023-05-07T11:02:08;3.53;;;2.80;;
5412;SDS011;2729;50.056;8.678;2023-05-07T11:07:59;2.77;;;2.57;;
5412;SDS011;2729;50.056;8.678;2023-05-07T11:10:52;3.57;;;2.47;;
5412;SDS011;2729;50.056;8.678;2023-05-07T11:13:45;3.60;;;2.57;;
5412;SDS011;2729;50.056;8.678;2023-05-07T11:16:41;2.37;;;2.27;;
5412;SDS011;2729;50.056;8.678;2023-05-07T11:19:40;4.40;;;3.20;;
5412;SDS011;2729;50.056;8.678;2023-05-07T11:25:17;2.63;;;2.53;;
5412;SDS011;2729;50.056;8.678;2023-05-07T11:27:45;3.93;;;2.87;;
5412;SDS011;2729;50.056;8.678;2023-05-07T11:30:19;4.63;;;3.10;;
5412;SDS011;2729;50.056;8.678;2023-05-07T11:32:47;3.73;;;2.87;;
5412;SDS011;2729;50.056;8.678;2023-05-07T11:35:15;2.50;;;2.33;;
5412;SDS011;2729;50.056;8.678;2023-05-07T11:37:42;2.70;;;2.50;;
5412;SDS011;2729;50.056;8.678;2023-05-07T11:40:10;4.43;;;2.70;;
5412;SDS011;2729;50.056;8.678;2023-05-07T11:42:38;2.13;;;1.93;;
5412;SDS011;2729;50.056;8.678;2023-05-07T11:48:03;2.90;;;2.43;;
5412;SDS011;2729;50.056;8.678;2023-05-07T11:50:30;3.13;;;2.83;;
5412;SDS011;2729;50.056;8.678;2023-05-07T11:52:56;2.90;;;2.70;;
5412;SDS011;2729;50.056;8.678;2023-05-07T11:55:24;2.10;;;2.00;;
5412;SDS011;2729;50.056;8.678;2023-05-07T11:57:51;5.53;;;2.30;;
5412;SDS011;2729;50.056;8.678;2023-05-07T12:00:17;2.40;;;2.20;;
5412;SDS011;2729;50.056;8.678;2023-05-07T12:02:45;2.00;;;1.90;;
5412;SDS011;2729;50.056;8.678;2023-05-07T12:05:11;2.20;;;2.03;;
5412;SDS011;2729;50.056;8.678;2023-05-07T12:07:37;2.93;;;2.63;;
5412;SDS011;2729;50.056;8.678;2023-05-07T12:10:04;2.67;;;2.47;;
5412;SDS011;2729;50.056;8.678;2023-05-07T12:12:45;2.70;;;2.50;;
5412;SDS011;2729;50.056;8.678;2023-05-07T12:15:17;1.90;;;1.80;;
5412;SDS011;2729;50.056;8.678;2023-05-07T12:17:57;2.00;;;1.83;;
5412;SDS011;2729;50.056;8.678;2023-05-07T12:20:22;1.70;;;1.60;;
5412;SDS011;2729;50.056;8.678;2023-05-07T12:22:49;2.67;;;2.47;;
5412;SDS011;2729;50.056;8.678;2023-05-07T12:25:18;2.50;;;2.40;;
5412;SDS011;2729;50.056;8.678;2023-05-07T12:27:45;2.60;;;2.40;;
5412;SDS011;2729;50.056;8.678;2023-05-07T12:30:21;2.30;;;2.20;;
5412;SDS011;2729;50.056;8.678;2023-05-07T12:32:47;1.80;;;1.70;;
5412;SDS011;2729;50.056;8.678;2023-05-07T12:35:17;2.13;;;2.00;;
5412;SDS011;2729;50.056;8.678;2023-05-07T12:38:02;2.40;;;2.23;;
5412;SDS011;2729;50.056;8.678;2023-05-07T12:40:36;2.77;;;2.20;;
5412;SDS011;2729;50.056;8.678;2023-05-07T12:43:06;1.97;;;1.87;;
5412;SDS011;2729;50.056;8.678;2023-05-07T12:45:41;2.37;;;1.97;;
5412;SDS011;2729;50.056;8.678;2023-05-07T12:48:09;3.43;;;2.10;;
5412;SDS011;2729;50.056;8.678;2023-05-07T12:50:35;2.77;;;2.57;;
5412;SDS011;2729;50.056;8.678;2023-05-07T12:53:05;2.13;;;2.03;;
5412;SDS011;2729;50.056;8.678;2023-05-07T12:55:34;2.00;;;1.90;;
5412;SDS011;2729;50.056;8.678;2023-05-07T12:58:06;2.00;;;1.90;;
5412;SDS011;2729;50.056;8.678;2023-05-07T13:00:36;3.60;;;2.20;;
5412;SDS011;2729;50.056;8.678;2023-05-07T13:03:03;2.13;;;1.93;;
5412;SDS011;2729;50.056;8.678;2023-05-07T13:05:33;1.90;;;1.80;;
5412;SDS011;2729;50.056;8.678;2023-05-07T13:08:00;2.10;;;2.00;;
5412;SDS011;2729;50.056;8.678;2023-05-07T13:10:27;2.00;;;1.90;;
5412;SDS011;2729;50.056;8.678;2023-05-07T13:12:53;2.10;;;1.83;;
5412;SDS011;2729;50.056;8.678;2023-05-07T13:15:19;1.90;;;1.73;;
5412;SDS011;2729;50.056;8.678;2023-05-07T13:17:46;1.67;;;1.57;;
5412;SDS011;2729;50.056;8.678;2023-05-07T13:20:12;2.53;;;2.33;;
5412;SDS011;2729;50.056;8.678;2023-05-07T13:22:38;2.37;;;2.27;;
5412;SDS011;2729;50.056;8.678;2023-05-07T13:25:07;3.17;;;1.90;;
5412;SDS011;2729;50.056;8.678;2023-05-07T13:27:34;4.27;;;2.50;;
5412;SDS011;2729;50.056;8.678;2023-05-07T13:30:03;1.90;;;1.80;;
5412;SDS011;2729;50.056;8.678;2023-05-07T13:32:30;1.67;;;1.57;;
5412;SDS011;2729;50.056;8.678;2023-05-07T13:34:56;1.70;;;1.60;;
5412;SDS011;2729;50.056;8.678;2023-05-07T13:37:25;3.30;;;2.40;;
5412;SDS011;2729;50.056;8.678;2023-05-07T13:39:51;1.80;;;1.70;;
5412;SDS011;2729;50.056;8.678;2023-05-07T13:42:17;2.10;;;2.00;;
5412;SDS011;2729;50.056;8.678;2023-05-07T13:44:43;3.67;;;2.50;;
5412;SDS011;2729;50.056;8.678;2023-05-07T13:47:09;1.90;;;1.80;;
5412;SDS011;2729;50.056;8.678;2023-05-07T13:49:35;6.40;;;1.87;;
5412;SDS011;2729;50.056;8.678;2023-05-07T13:52:01;1.87;;;1.77;;
5412;SDS011;2729;50.056;8.678;2023-05-07T13:54:30;4.30;;;2.40;;
5412;SDS011;2729;50.056;8.678;2023-05-07T13:57:05;1.80;;;1.70;;
5412;SDS011;2729;50.056;8.678;2023-05-07T13:59:38;2.37;;;2.20;;
5412;SDS011;2729;50.056;8.678;2023-05-07T14:02:21;2.33;;;2.20;;
5412;SDS011;2729;50.056;8.678;2023-05-07T14:04:47;2.00;;;1.90;;
5412;SDS011;2729;50.056;8.678;2023-05-07T14:07:13;1.93;;;1.83;;
5412;SDS011;2729;50.056;8.678;2023-05-07T14:09:42;2.40;;;2.30;;
5412;SDS011;2729;50.056;8.678;2023-05-07T14:12:11;2.20;;;2.10;;
5412;SDS011;2729;50.056;8.678;2023-05-07T14:14:37;2.00;;;1.90;;
5412;SDS011;2729;50.056;8.678;2023-05-07T14:17:06;3.60;;;2.50;;
5412;SDS011;2729;50.056;8.678;2023-05-07T14:19:35;2.10;;;2.00;;
5412;SDS011;2729;50.056;8.678;2023-05-07T14:22:01;2.13;;;2.03;;
5412;SDS011;2729;50.056;8.678;2023-05-07T14:24:28;2.20;;;1.87;;
5412;SDS011;2729;50.056;8.678;2023-05-07T14:26:54;1.80;;;1.70;;
5412;SDS011;2729;50.056;8.678;2023-05-07T14:29:21;2.40;;;2.30;;
5412;SDS011;2729;50.056;8.678;2023-05-07T14:31:47;1.53;;;1.43;;
5412;SDS011;2729;50.056;8.678;2023-05-07T14:34:14;2.27;;;2.17;;
5412;SDS011;2729;50.056;8.678;2023-05-07T14:36:40;2.23;;;2.13;;
5412;SDS011;2729;50.056;8.678;2023-05-07T14:39:09;1.97;;;1.87;;
5412;SDS011;2729;50.056;8.678;2023-05-07T14:41:35;1.80;;;1.50;;
5412;SDS011;2729;50.056;8.678;2023-05-07T14:44:01;1.87;;;1.70;;
5412;SDS011;2729;50.056;8.678;2023-05-07T14:46:29;2.00;;;1.90;;
5412;SDS011;2729;50.056;8.678;2023-05-07T14:48:59;1.90;;;1.80;;
5412;SDS011;2729;50.056;8.678;2023-05-07T14:51:26;2.00;;;1.90;;
5412;SDS011;2729;50.056;8.678;2023-05-07T14:53:53;2.20;;;2.10;;
5412;SDS011;2729;50.056;8.678;2023-05-07T14:56:19;2.40;;;2.30;;
5412;SDS011;2729;50.056;8.678;2023-05-07T14:58:46;2.50;;;2.30;;
5412;SDS011;2729;50.056;8.678;2023-05-07T15:01:16;2.17;;;2.07;;
5412;SDS011;2729;50.056;8.678;2023-05-07T15:03:42;2.27;;;2.17;;
5412;SDS011;2729;50.056;8.678;2023-05-07T15:06:09;1.90;;;1.80;;
5412;SDS011;2729;50.056;8.678;2023-05-07T15:08:37;1.90;;;1.80;;
5412;SDS011;2729;50.056;8.678;2023-05-07T15:11:19;2.20;;;2.00;;
5412;SDS011;2729;50.056;8.678;2023-05-07T15:13:46;4.50;;;2.10;;
5412;SDS011;2729;50.056;8.678;2023-05-07T15:16:13;2.30;;;2.10;;
5412;SDS011;2729;50.056;8.678;2023-05-07T15:18:39;2.13;;;2.03;;
5412;SDS011;2729;50.056;8.678;2023-05-07T15:21:08;2.03;;;1.93;;
5412;SDS011;2729;50.056;8.678;2023-05-07T15:23:35;2.03;;;1.80;;
5412;SDS011;2729;50.056;8.678;2023-05-07T15:26:04;6.17;;;2.27;;
5412;SDS011;2729;50.056;8.678;2023-05-07T15:28:36;1.97;;;1.87;;
5412;SDS011;2729;50.056;8.678;2023-05-07T15:31:06;2.30;;;2.20;;
5412;SDS011;2729;50.056;8.678;2023-05-07T15:33:42;1.87;;;1.77;;
5412;SDS011;2729;50.056;8.678;2023-05-07T15:36:19;1.97;;;1.87;;
5412;SDS011;2729;50.056;8.678;2023-05-07T15:38:46;4.07;;;1.80;;
5412;SDS011;2729;50.056;8.678;2023-05-07T15:41:12;2.37;;;2.17;;